createdAt,value
2019-05-26T00:00:54.960Z,10.10
2019-05-26T00:03:23.668Z,10.10
2019-05-26T00:05:52.398Z,10.10
2019-05-26T00:08:21.092Z,10.10
2019-05-26T00:10:49.801Z,10.10
2019-05-26T00:13:18.553Z,10.10
2019-05-26T00:15:49.308Z,10.10
2019-05-26T00:18:19.423Z,10.10
2019-05-26T00:20:49.916Z,10.10
2019-05-26T00:23:19.717Z,10.10
2019-05-26T00:25:49.340Z,10.10
2019-05-26T00:28:18.114Z,10.10
2019-05-26T00:30:46.795Z,10.10
2019-05-26T00:33:15.499Z,10.00
2019-05-26T00:35:44.226Z,10.00
2019-05-26T00:38:12.923Z,9.90
2019-05-26T00:40:41.662Z,9.80
2019-05-26T00:43:10.530Z,9.80
2019-05-26T00:45:39.284Z,9.70
2019-05-26T00:48:09.053Z,9.60
2019-05-26T00:50:37.790Z,9.50
2019-05-26T00:53:06.641Z,9.60
2019-05-26T00:55:35.503Z,9.60
2019-05-26T00:58:04.246Z,9.60
2019-05-26T01:00:40.789Z,9.60
2019-05-26T01:03:10.180Z,9.50
2019-05-26T01:05:39.013Z,9.40
2019-05-26T01:08:08.699Z,9.30
2019-05-26T01:10:37.787Z,9.20
2019-05-26T01:13:07.053Z,9.10
2019-05-26T01:15:35.774Z,9.10
2019-05-26T01:18:05.078Z,9.00
2019-05-26T01:20:33.831Z,9.00
2019-05-26T01:23:02.510Z,8.90
2019-05-26T01:25:31.320Z,8.80
2019-05-26T01:28:02.609Z,8.80
2019-05-26T01:30:36.212Z,8.80
2019-05-26T01:33:05.997Z,8.70
2019-05-26T01:35:36.710Z,8.70
2019-05-26T01:38:22.009Z,8.70
2019-05-26T01:40:38.390Z,8.80
2019-05-26T01:44:47.321Z,8.70
2019-05-26T01:45:42.676Z,8.80
2019-05-26T01:48:11.341Z,8.80
2019-05-26T01:50:40.121Z,8.90
2019-05-26T01:53:08.805Z,8.80
2019-05-26T01:55:37.516Z,8.70
2019-05-26T01:58:06.571Z,8.60
2019-05-26T02:00:35.272Z,8.60
2019-05-26T02:03:04.205Z,8.50
2019-05-26T02:05:32.902Z,8.50
2019-05-26T02:08:01.585Z,8.40
2019-05-26T02:10:30.281Z,8.40
2019-05-26T02:12:59.893Z,8.40
2019-05-26T02:15:29.192Z,8.40
2019-05-26T02:17:57.890Z,8.30
2019-05-26T02:20:26.688Z,8.30
2019-05-26T02:22:55.434Z,8.20
2019-05-26T02:25:24.631Z,8.20
2019-05-26T02:27:53.337Z,8.20
2019-05-26T02:30:25.983Z,8.40
2019-05-26T02:32:54.838Z,8.30
2019-05-26T02:35:23.713Z,8.40
2019-05-26T02:37:52.481Z,8.30
2019-05-26T02:40:21.876Z,8.30
2019-05-26T02:42:50.609Z,8.30
2019-05-26T02:45:20.972Z,8.30
2019-05-26T02:47:49.800Z,8.20
2019-05-26T02:50:20.316Z,8.20
2019-05-26T02:52:49.067Z,8.20
2019-05-26T02:55:18.311Z,8.30
2019-05-26T02:57:47.139Z,8.30
2019-05-26T03:00:17.748Z,8.30
2019-05-26T03:02:46.527Z,8.30
2019-05-26T03:05:15.508Z,8.20
2019-05-26T03:07:47.378Z,8.20
2019-05-26T03:10:16.508Z,8.20
2019-05-26T03:12:46.849Z,8.10
2019-05-26T03:15:16.172Z,8.10
2019-05-26T03:17:47.359Z,8.20
2019-05-26T03:20:18.240Z,8.20
2019-05-26T03:22:48.605Z,8.20
2019-05-26T03:25:17.431Z,8.30
2019-05-26T03:27:46.174Z,8.30
2019-05-26T03:30:14.937Z,8.30
2019-05-26T03:32:43.677Z,8.30
2019-05-26T03:35:12.566Z,8.20
2019-05-26T03:37:41.242Z,8.20
2019-05-26T03:40:10.587Z,8.20
2019-05-26T03:42:39.287Z,8.20
2019-05-26T03:45:08.754Z,8.20
2019-05-26T03:47:37.517Z,8.30
2019-05-26T03:50:06.829Z,8.30
2019-05-26T03:52:35.505Z,8.40
2019-05-26T03:55:04.874Z,8.50
2019-05-26T03:57:33.621Z,8.50
2019-05-26T04:00:02.294Z,8.50
2019-05-26T04:02:31.240Z,8.60
2019-05-26T04:05:00.059Z,8.70
2019-05-26T04:07:28.710Z,8.70
2019-05-26T04:10:04.591Z,8.80
2019-05-26T04:12:27.828Z,8.80
2019-05-26T04:14:56.505Z,8.90
2019-05-26T04:20:32.541Z,9.10
2019-05-26T04:23:04.612Z,9.30
2019-05-26T04:25:34.192Z,9.30
2019-05-26T04:28:04.423Z,9.40
2019-05-26T04:30:34.505Z,9.40
2019-05-26T04:33:08.619Z,9.60
2019-05-26T04:35:38.073Z,9.70
2019-05-26T04:38:08.363Z,9.70
2019-05-26T04:40:40.951Z,9.80
2019-05-26T04:43:20.960Z,9.90
2019-05-26T04:46:00.078Z,10.00
2019-05-26T04:48:44.273Z,10.00
2019-05-26T04:51:13.576Z,10.10
2019-05-26T04:53:44.904Z,10.10
2019-05-26T04:56:14.117Z,10.10
2019-05-26T04:58:48.538Z,10.20
2019-05-26T05:01:25.109Z,10.30
2019-05-26T05:04:10.486Z,10.30
2019-05-26T05:06:42.160Z,10.40
2019-05-26T05:09:11.514Z,10.50
2019-05-26T05:11:41.959Z,10.60
2019-05-26T05:14:15.095Z,10.70
2019-05-26T05:16:49.558Z,10.70
2019-05-26T05:19:20.308Z,10.80
2019-05-26T05:21:56.590Z,10.90
2019-05-26T05:24:28.846Z,10.90
2019-05-26T05:26:58.311Z,11.00
2019-05-26T05:29:30.387Z,11.20
2019-05-26T05:32:02.764Z,11.30
2019-05-26T05:35:17.916Z,11.40
2019-05-26T05:37:49.692Z,11.50
2019-05-26T05:40:19.542Z,11.80
2019-05-26T05:42:48.780Z,11.90
2019-05-26T05:45:21.909Z,12.10
2019-05-26T05:47:59.653Z,12.10
2019-05-26T05:50:29.336Z,12.20
2019-05-26T05:52:58.676Z,12.40
2019-05-26T05:55:29.156Z,12.50
2019-05-26T05:58:11.829Z,12.50
2019-05-26T06:00:43.649Z,12.50
2019-05-26T06:03:39.199Z,12.70
2019-05-26T06:06:08.712Z,12.80
2019-05-26T06:08:41.222Z,12.90
2019-05-26T06:14:07.533Z,13.10
2019-05-26T06:16:39.019Z,13.30
2019-05-26T06:19:09.744Z,13.50
2019-05-26T06:21:43.104Z,13.50
2019-05-26T06:24:12.208Z,13.70
2019-05-26T06:26:42.319Z,13.80
2019-05-26T06:29:11.579Z,13.90
2019-05-26T06:37:11.799Z,14.10
2019-05-26T06:39:40.583Z,14.20
2019-05-26T06:42:12.817Z,14.30
2019-05-26T06:44:52.929Z,14.40
2019-05-26T06:49:46.315Z,14.60
2019-05-26T06:52:15.220Z,14.60
2019-05-26T06:54:46.716Z,14.70
2019-05-26T06:57:35.681Z,14.80
2019-05-26T07:00:13.140Z,15.00
2019-05-26T07:02:44.273Z,15.10
2019-05-26T07:05:18.069Z,15.50
2019-05-26T07:07:46.214Z,15.80
2019-05-26T07:10:21.512Z,16.00
2019-05-26T07:12:53.152Z,15.80
2019-05-26T07:15:45.877Z,15.80
2019-05-26T07:21:06.618Z,16.30
2019-05-26T08:13:13.505Z,18.90
2019-05-26T08:15:45.749Z,19.20
2019-05-26T08:18:16.719Z,19.00
2019-05-26T08:20:51.242Z,19.20
2019-05-26T08:23:40.319Z,19.40
2019-05-26T08:29:40.718Z,19.40
2019-05-26T08:32:10.272Z,19.20
2019-05-26T08:34:39.779Z,19.20
2019-05-26T08:37:09.514Z,19.50
2019-05-26T08:39:38.992Z,19.50
2019-05-26T08:42:08.885Z,19.50
2019-05-26T08:45:53.571Z,19.40
2019-05-26T08:48:22.604Z,19.60
2019-05-26T08:50:51.969Z,19.80
2019-05-26T08:53:21.459Z,19.80
2019-05-26T08:55:51.057Z,19.70
2019-05-26T08:58:20.634Z,20.00
2019-05-26T09:00:49.544Z,20.40
2019-05-26T09:03:19.024Z,20.20
2019-05-26T09:05:48.277Z,20.30
2019-05-26T09:08:17.473Z,20.10
2019-05-26T09:10:46.763Z,19.80
2019-05-26T09:13:16.210Z,20.20
2019-05-26T09:15:45.856Z,20.10
2019-05-26T09:18:15.082Z,19.90
2019-05-26T09:20:46.232Z,20.30
2019-05-26T09:23:15.871Z,20.70
2019-05-26T09:25:46.609Z,21.00
2019-05-26T09:28:16.574Z,21.30
2019-05-26T09:30:46.222Z,22.00
2019-05-26T09:33:15.339Z,21.70
2019-05-26T09:35:44.520Z,21.10
2019-05-26T09:38:15.329Z,21.10
2019-05-26T09:40:45.316Z,21.30
2019-05-26T09:43:17.774Z,21.10
2019-05-26T09:46:05.350Z,21.20
2019-05-26T09:48:34.776Z,21.50
2019-05-26T09:51:04.043Z,21.50
2019-05-26T09:54:00.559Z,21.70
2019-05-26T09:56:08.389Z,22.30
2019-05-26T09:58:37.524Z,21.50
2019-05-26T10:01:06.931Z,21.80
2019-05-26T10:03:36.070Z,21.50
2019-05-26T10:06:08.019Z,22.30
2019-05-26T10:08:37.447Z,22.40
2019-05-26T10:11:07.005Z,22.60
2019-05-26T10:13:36.180Z,22.30
2019-05-26T10:16:05.589Z,22.20
2019-05-26T10:18:34.863Z,21.90
2019-05-26T10:21:04.153Z,22.00
2019-05-26T10:23:33.215Z,21.90
2019-05-26T10:26:02.476Z,21.50
2019-05-26T10:28:31.496Z,21.80
2019-05-26T10:31:00.652Z,22.00
2019-05-26T10:33:30.105Z,22.20
2019-05-26T10:35:59.175Z,21.70
2019-05-26T10:38:28.339Z,21.40
2019-05-26T10:40:57.686Z,21.80
2019-05-26T10:43:27.485Z,21.90
2019-05-26T10:45:57.093Z,22.00
2019-05-26T10:48:26.160Z,22.00
2019-05-26T10:50:59.734Z,22.30
2019-05-26T10:53:29.022Z,23.00
2019-05-26T10:56:05.039Z,22.80
2019-05-26T10:58:40.085Z,23.00
2019-05-26T11:01:09.389Z,22.80
2019-05-26T11:03:38.676Z,23.20
2019-05-26T11:06:11.599Z,22.80
2019-05-26T11:08:58.926Z,22.80
2019-05-26T11:12:16.220Z,22.50
2019-05-26T11:14:56.728Z,23.10
2019-05-26T11:17:41.783Z,23.40
2019-05-26T11:20:21.043Z,22.90
2019-05-26T11:23:41.613Z,23.10
2019-05-26T11:30:31.346Z,23.40
2019-05-26T11:33:00.809Z,23.50
2019-05-26T11:35:30.211Z,23.30
2019-05-26T11:37:59.726Z,23.00
2019-05-26T11:40:32.275Z,22.90
2019-05-26T11:43:15.771Z,23.00
2019-05-26T11:45:35.654Z,23.40
2019-05-26T11:48:06.535Z,23.00
2019-05-26T11:50:36.025Z,23.00
2019-05-26T11:56:37.373Z,23.40
2019-05-26T11:59:47.120Z,23.40
2019-05-26T12:19:51.709Z,23.30
2019-05-26T12:22:21.303Z,23.50
2019-05-26T12:28:37.903Z,23.90
2019-05-26T12:31:10.200Z,23.70
2019-05-26T12:33:44.080Z,23.50
2019-05-26T12:36:18.133Z,23.50
2019-05-26T12:38:53.640Z,23.80
2019-05-26T12:41:23.678Z,23.90
2019-05-26T12:43:53.338Z,23.20
2019-05-26T12:46:22.701Z,23.50
2019-05-26T12:48:52.559Z,23.30
2019-05-26T12:51:43.526Z,23.50
2019-05-26T12:54:15.299Z,23.30
2019-05-26T12:56:45.012Z,23.60
2019-05-26T12:59:41.416Z,23.70
2019-05-26T13:02:21.743Z,23.70
2019-05-26T13:09:38.322Z,23.50
2019-05-26T13:16:17.575Z,23.30
2019-05-26T13:22:38.452Z,23.30
2019-05-26T13:25:22.404Z,23.50
2019-05-26T13:42:04.792Z,23.30
2019-05-26T13:44:41.710Z,23.00
2019-05-26T13:47:26.070Z,23.00
2019-05-26T13:50:09.312Z,22.90
2019-05-26T13:59:47.268Z,23.20
2019-05-26T14:09:53.029Z,23.30
2019-05-26T14:12:29.844Z,23.20
2019-05-26T14:19:20.966Z,22.80
2019-05-26T14:22:03.339Z,22.70
2019-05-26T14:31:15.935Z,22.70
2019-05-26T14:37:43.011Z,22.50
2019-05-26T14:40:15.731Z,22.60
2019-05-26T14:42:50.042Z,22.60
2019-05-26T14:45:27.145Z,22.40
2019-05-26T14:48:22.306Z,22.70
2019-05-26T14:51:40.490Z,22.90
2019-05-26T15:12:58.383Z,22.80
2019-05-26T15:16:09.182Z,22.70
2019-05-26T15:31:56.884Z,23.00
2019-05-26T15:34:25.764Z,22.60
2019-05-26T15:36:55.066Z,22.60
2019-05-26T15:39:24.026Z,22.60
2019-05-26T15:41:52.922Z,22.40
2019-05-26T15:44:54.780Z,22.10
2019-05-26T15:54:27.352Z,21.70
2019-05-26T15:57:30.550Z,21.80
2019-05-26T16:00:08.646Z,21.90
2019-05-26T16:02:38.041Z,21.90
2019-05-26T16:05:07.441Z,22.00
2019-05-26T16:07:36.756Z,22.00
2019-05-26T16:10:06.628Z,22.10
2019-05-26T16:12:35.828Z,22.00
2019-05-26T16:15:06.306Z,22.10
2019-05-26T16:17:38.686Z,22.00
2019-05-26T16:20:14.298Z,22.00
2019-05-26T16:22:43.221Z,21.80
2019-05-26T16:25:16.545Z,22.00
2019-05-26T16:27:46.279Z,22.00
2019-05-26T16:33:50.799Z,22.30
2019-05-26T16:36:21.416Z,21.90
2019-05-26T16:38:50.055Z,21.90
2019-05-26T16:41:18.899Z,21.80
2019-05-26T16:43:47.643Z,21.70
2019-05-26T16:46:17.675Z,22.00
2019-05-26T16:48:46.510Z,21.90
2019-05-26T16:51:21.661Z,21.90
2019-05-26T16:53:50.387Z,21.90
2019-05-26T16:56:19.065Z,21.80
2019-05-26T16:58:47.845Z,21.80
2019-05-26T17:01:16.621Z,21.80
2019-05-26T17:03:45.348Z,21.70
2019-05-26T17:06:14.260Z,21.60
2019-05-26T17:09:20.478Z,21.50
2019-05-26T17:11:49.480Z,21.50
2019-05-26T17:14:18.170Z,21.30
2019-05-26T17:16:46.883Z,21.20
2019-05-26T17:19:15.578Z,21.20
2019-05-26T17:21:44.260Z,21.10
2019-05-26T17:24:12.977Z,20.90
2019-05-26T17:26:41.679Z,21.00
2019-05-26T17:29:10.402Z,20.90
2019-05-26T17:31:39.148Z,20.80
2019-05-26T17:34:07.904Z,20.80
2019-05-26T17:36:36.601Z,20.70
2019-05-26T17:39:07.466Z,20.70
2019-05-26T17:41:37.132Z,20.60
2019-05-26T17:44:06.313Z,20.50
2019-05-26T17:46:35.023Z,20.60
2019-05-26T17:49:03.891Z,20.50
2019-05-26T17:51:33.001Z,20.50
2019-05-26T17:54:01.869Z,20.40
2019-05-26T17:56:34.516Z,20.40
2019-05-26T17:59:03.398Z,20.20
2019-05-26T18:01:32.141Z,20.20
2019-05-26T18:07:13.050Z,20.20
2019-05-26T18:09:44.464Z,20.10
2019-05-26T18:12:12.245Z,20.00
2019-05-26T18:14:41.132Z,19.90
2019-05-26T18:17:09.789Z,19.80
2019-05-26T18:19:38.684Z,19.90
2019-05-26T18:25:04.115Z,19.90
2019-05-26T18:27:32.838Z,19.80
2019-05-26T18:30:01.574Z,19.70
2019-05-26T18:32:30.335Z,19.60
2019-05-26T18:34:59.005Z,19.60
2019-05-26T18:37:29.833Z,19.50
2019-05-26T18:39:58.538Z,19.50
2019-05-26T18:42:27.233Z,19.50
2019-05-26T18:44:55.910Z,19.40
2019-05-26T18:47:25.581Z,19.40
2019-05-26T18:50:00.031Z,19.30
2019-05-26T18:52:28.917Z,19.30
2019-05-26T18:55:04.043Z,19.20
2019-05-26T18:57:57.969Z,19.10
2019-05-26T19:00:31.073Z,19.00
2019-05-26T19:03:01.489Z,18.90
2019-05-26T19:05:33.914Z,18.80
2019-05-26T19:08:01.465Z,18.70
2019-05-26T19:10:30.185Z,18.70
2019-05-26T19:12:58.850Z,18.60
2019-05-26T19:15:27.689Z,18.50
2019-05-26T19:17:56.479Z,18.40
2019-05-26T19:20:25.245Z,18.40
2019-05-26T19:22:53.905Z,18.30
2019-05-26T19:25:22.612Z,18.40
2019-05-26T19:27:51.274Z,18.40
2019-05-26T19:30:20.459Z,18.40
2019-05-26T19:32:49.219Z,18.30
2019-05-26T19:35:18.154Z,18.10
2019-05-26T19:37:46.869Z,18.10
2019-05-26T19:40:16.524Z,18.00
2019-05-26T19:42:45.464Z,17.90
2019-05-26T19:45:15.330Z,17.80
2019-05-26T19:47:44.352Z,17.70
2019-05-26T19:50:15.741Z,17.50
2019-05-26T19:52:49.774Z,17.50
2019-05-26T19:55:17.246Z,17.40
2019-05-26T19:57:45.950Z,17.40
2019-05-26T20:00:16.965Z,17.30
2019-05-26T20:02:45.695Z,17.40
2019-05-26T20:05:14.922Z,17.30
2019-05-26T20:07:43.793Z,17.30
2019-05-26T20:10:13.414Z,17.40
2019-05-26T20:12:42.893Z,17.30
2019-05-26T20:15:11.842Z,17.30
2019-05-26T20:17:40.576Z,17.30
2019-05-26T20:20:09.899Z,17.30
2019-05-26T20:22:38.717Z,17.30
2019-05-26T20:25:08.407Z,17.50
2019-05-26T20:27:37.103Z,17.40
2019-05-26T20:30:06.290Z,17.30
2019-05-26T20:32:35.084Z,17.60
2019-05-26T20:35:04.182Z,17.50
2019-05-26T20:37:32.922Z,17.50
2019-05-26T20:40:01.606Z,17.40
2019-05-26T20:42:30.305Z,17.40
2019-05-26T20:44:59.053Z,17.40
2019-05-26T20:47:27.777Z,17.30
2019-05-26T20:49:56.483Z,17.20
2019-05-26T20:52:25.249Z,17.20
2019-05-26T20:54:53.969Z,17.10
2019-05-26T20:57:22.914Z,17.10
2019-05-26T20:59:51.945Z,17.20
2019-05-26T21:02:20.926Z,17.10
2019-05-26T21:04:50.020Z,17.10
2019-05-26T21:07:19.133Z,17.10
2019-05-26T21:09:47.863Z,17.20
2019-05-26T21:12:16.583Z,17.30
2019-05-26T21:14:45.391Z,17.30
2019-05-26T21:17:14.100Z,17.30
2019-05-26T21:19:42.832Z,17.20
2019-05-26T21:22:11.575Z,17.10
2019-05-26T21:24:40.309Z,17.00
2019-05-26T21:27:09.076Z,17.00
2019-05-26T21:29:37.792Z,17.00
2019-05-26T21:32:06.579Z,17.10
2019-05-26T21:34:35.283Z,17.20
2019-05-26T21:37:04.138Z,17.20
2019-05-26T21:39:32.806Z,17.20
2019-05-26T21:42:01.491Z,17.30
2019-05-26T21:44:30.202Z,17.40
2019-05-26T21:46:58.913Z,17.50
2019-05-26T21:49:27.933Z,17.50
2019-05-26T21:51:56.720Z,17.40
2019-05-26T21:54:25.411Z,17.50
2019-05-26T21:56:54.087Z,17.40
2019-05-26T21:59:22.812Z,17.40
2019-05-26T22:01:51.492Z,17.60
2019-05-26T22:04:20.309Z,17.60
2019-05-26T22:06:49.052Z,17.60
2019-05-26T22:09:17.826Z,17.60
2019-05-26T22:11:46.656Z,17.70
2019-05-26T22:14:15.408Z,17.60
2019-05-26T22:16:44.154Z,17.60
2019-05-26T22:19:12.895Z,17.70
2019-05-26T22:21:41.627Z,17.60
2019-05-26T22:27:51.221Z,17.60
2019-05-26T22:30:21.031Z,17.50
2019-05-26T22:32:50.657Z,17.60
2019-05-26T22:35:20.569Z,17.70
2019-05-26T22:37:50.816Z,17.60
2019-05-26T22:40:19.886Z,17.60
2019-05-26T22:42:50.008Z,17.50
2019-05-26T22:45:19.171Z,17.60
2019-05-26T22:47:48.483Z,17.60
2019-05-26T22:50:18.067Z,17.60
2019-05-26T22:52:47.209Z,17.70
2019-05-26T22:55:16.062Z,17.70
2019-05-26T22:57:45.133Z,17.70
2019-05-26T23:00:15.725Z,17.70
2019-05-26T23:02:44.751Z,17.70
2019-05-26T23:05:14.366Z,17.70
2019-05-26T23:07:43.575Z,17.60
2019-05-26T23:10:12.725Z,17.70
2019-05-26T23:12:41.693Z,17.70
2019-05-26T23:15:11.196Z,17.60
2019-05-26T23:17:40.687Z,17.60
2019-05-26T23:20:14.455Z,17.60
2019-05-26T23:22:43.487Z,17.70
2019-05-26T23:25:15.101Z,17.60
2019-05-26T23:27:44.136Z,17.50
2019-05-26T23:30:13.204Z,17.50
2019-05-26T23:32:42.264Z,17.40
2019-05-26T23:35:11.533Z,17.30
2019-05-26T23:37:41.126Z,17.40
2019-05-26T23:40:10.826Z,17.30
2019-05-26T23:42:43.350Z,17.30
2019-05-26T23:45:14.458Z,17.30
2019-05-26T23:47:43.676Z,17.30
2019-05-26T23:50:14.169Z,17.30
2019-05-26T23:52:43.186Z,17.30
2019-05-26T23:55:12.917Z,17.20
2019-05-26T23:57:42.851Z,17.10
